Clyde, Iowa
Current Conditions -  °F | °C
As of 2:53 AM on Wednesday 28 Jan 2015 (Local Time) from KAMW Reporting Station
Haze Haze  
Wind Chill: -8°   Ceiling: 400
Heat Index: -2°   Visibility: 3mi
Dew Point: -3°   Wind: 15mph
Humidity: 92%   Direction: 130°SE
Pressure: 30.08"   Gusts: 21mph
Location:  41.9063°N, 93.2893°W
Report Text: KAMW 280853Z AUTO 13013G18KT 3SM BR OVC004 M02/M03 A3008 RMK AO2 SLP191 T10171028 56014
Loading
Personal Weather Stations






























Interactive Weather Map New forecast layout! Learn more

10-Day Weather Forecast

Advertisements
Track Severe Weather on mobile